Davie, FL

5:54 PM EDT on March 29, 2015 (GMT -0400)
Davie - Near Tree Tops Park | | Change Station
CLOSE
Current Station
Personal Weather Station
Location: Davie, FL
Elevation: 8 ft
Nearby Weather Stations

Elev 8 ft 26.08 °N, 80.28 °W | Updated 0 second ago

Clear
Clear
71.5 °F
Feels Like 77 °F
N
5.8
Wind Variable Wind from ENE
Gusts 9.2 mph

Today
High -- | Low -- °F
--% Chance of Precip.
Yesterday
High -- | Low -- °F
Precip. -- in
7:15 AM 7:36 PM
Waxing Gibbous, 74% visible
Pressure 30.24 in
Visibility 10.0 miles
Clouds Few 4900 ft
Few 25000 ft
Scattered Clouds 33000 ft
Heat Index 77 °F
Dew Point 51 °F
Humidity 49%
Rainfall 0.00 in
Snow Depth Not available.
UV 4 out of 12
Pollen 8.10 out of 12
Air Quality Not available.
Flu Activity Not available.
METAR KFLL 292053Z 05017G23KT 10SM FEW049 FEW250 SCT330 23/08 A3024 RMK AO2 SLP238 T02280078 56012

More Conditions Fewer Conditions

Pressure 30.24 in
Visibility 10.0 miles
Clouds Few 4900 ft
Few 25000 ft
Scattered Clouds 33000 ft
Heat Index 77 °F
Dew Point 51 °F
Humidity 49%
Rainfall 0.00 in
Snow Depth Not available.
UV 4 out of 12
Pollen 8.10 out of 12
Air Quality Not available.
Flu Activity Not available.
METAR KFLL 292053Z 05017G23KT 10SM FEW049 FEW250 SCT330 23/08 A3024 RMK AO2 SLP238 T02280078 56012

More Conditions Fewer Conditions

10-Day Weather Forecast

Almanac

Astronomy

Mar. 29, 2015 Rise Set
Actual Time
Civil Twilight
Nautical Twilight
Astronomical Twilight
Moon
Length of Visible Light
Length of Day
Tomorrow will be .
, % of the Moon is Illuminated

Today's Extremes

State Highs State Lows

Community

WunderPhotos

Upload Photos

1,809,364 photos uploaded!

WunderBlogs® & News

Nearby

Air Quality

  Air Quality AQ Index Pollutant
Not available.

Snow Depth

Station Depth Elevation

Earthquake Activity

City Distance Mag. Time & Date
Minimum magnitude displayed is 2.5.

Coastal Water Temperatures

Place Temperature

Stations

Nearby Weather Stations

Station Location Temp. Windchill Dew Point Humidity Wind Precip. Elev Updated Type